sensor_id;sensor_type;location;lat;lon;timestamp;P1;durP1;ratioP1;P2;durP2;ratioP2
1785;SDS011;890;48.158;11.540;2023-04-21T00:00:45;19.50;;;16.30;;
1785;SDS011;890;48.158;11.540;2023-04-21T00:03:11;20.97;;;17.23;;
1785;SDS011;890;48.158;11.540;2023-04-21T00:05:36;23.57;;;18.33;;
1785;SDS011;890;48.158;11.540;2023-04-21T00:08:06;25.90;;;17.03;;
1785;SDS011;890;48.158;11.540;2023-04-21T00:10:32;18.50;;;15.17;;
1785;SDS011;890;48.158;11.540;2023-04-21T00:12:57;25.27;;;17.27;;
1785;SDS011;890;48.158;11.540;2023-04-21T00:15:23;20.07;;;16.00;;
1785;SDS011;890;48.158;11.540;2023-04-21T00:17:48;25.73;;;16.90;;
1785;SDS011;890;48.158;11.540;2023-04-21T00:20:14;24.77;;;18.60;;
1785;SDS011;890;48.158;11.540;2023-04-21T00:22:40;20.47;;;16.20;;
1785;SDS011;890;48.158;11.540;2023-04-21T00:25:05;20.53;;;16.23;;
1785;SDS011;890;48.158;11.540;2023-04-21T00:27:31;22.97;;;17.40;;
1785;SDS011;890;48.158;11.540;2023-04-21T00:29:57;24.47;;;17.07;;
1785;SDS011;890;48.158;11.540;2023-04-21T00:32:22;20.97;;;16.03;;
1785;SDS011;890;48.158;11.540;2023-04-21T00:34:48;23.90;;;16.67;;
1785;SDS011;890;48.158;11.540;2023-04-21T00:37:13;23.57;;;16.73;;
1785;SDS011;890;48.158;11.540;2023-04-21T00:39:39;22.17;;;16.17;;
1785;SDS011;890;48.158;11.540;2023-04-21T00:42:04;26.00;;;16.87;;
1785;SDS011;890;48.158;11.540;2023-04-21T00:44:30;25.00;;;17.40;;
1785;SDS011;890;48.158;11.540;2023-04-21T00:46:56;28.73;;;19.13;;
1785;SDS011;890;48.158;11.540;2023-04-21T00:49:21;28.10;;;19.60;;
1785;SDS011;890;48.158;11.540;2023-04-21T00:51:49;26.83;;;18.93;;
1785;SDS011;890;48.158;11.540;2023-04-21T00:54:15;25.70;;;18.77;;
1785;SDS011;890;48.158;11.540;2023-04-21T00:56:42;24.70;;;17.90;;
1785;SDS011;890;48.158;11.540;2023-04-21T00:59:08;24.03;;;16.37;;
1785;SDS011;890;48.158;11.540;2023-04-21T01:01:34;24.93;;;17.40;;
1785;SDS011;890;48.158;11.540;2023-04-21T01:04:00;26.43;;;17.67;;
1785;SDS011;890;48.158;11.540;2023-04-21T01:06:28;26.90;;;16.50;;
1785;SDS011;890;48.158;11.540;2023-04-21T01:08:56;28.57;;;16.43;;
1785;SDS011;890;48.158;11.540;2023-04-21T01:11:22;22.20;;;16.77;;
1785;SDS011;890;48.158;11.540;2023-04-21T01:13:47;25.80;;;18.40;;
1785;SDS011;890;48.158;11.540;2023-04-21T01:16:17;25.20;;;16.80;;
1785;SDS011;890;48.158;11.540;2023-04-21T01:18:43;25.43;;;17.10;;
1785;SDS011;890;48.158;11.540;2023-04-21T01:21:10;24.60;;;17.17;;
1785;SDS011;890;48.158;11.540;2023-04-21T01:23:37;27.70;;;18.17;;
1785;SDS011;890;48.158;11.540;2023-04-21T01:26:06;26.10;;;17.57;;
1785;SDS011;890;48.158;11.540;2023-04-21T01:28:31;25.87;;;17.10;;
1785;SDS011;890;48.158;11.540;2023-04-21T01:30:57;27.93;;;18.20;;
1785;SDS011;890;48.158;11.540;2023-04-21T01:33:23;25.10;;;16.87;;
1785;SDS011;890;48.158;11.540;2023-04-21T01:35:49;26.40;;;16.83;;
1785;SDS011;890;48.158;11.540;2023-04-21T01:38:15;24.23;;;16.50;;
1785;SDS011;890;48.158;11.540;2023-04-21T01:40:48;28.83;;;17.77;;
1785;SDS011;890;48.158;11.540;2023-04-21T01:43:15;25.47;;;17.27;;
1785;SDS011;890;48.158;11.540;2023-04-21T01:45:42;21.27;;;16.40;;
1785;SDS011;890;48.158;11.540;2023-04-21T01:48:08;22.67;;;16.40;;
1785;SDS011;890;48.158;11.540;2023-04-21T01:50:33;24.77;;;16.43;;
1785;SDS011;890;48.158;11.540;2023-04-21T01:52:59;25.73;;;16.07;;
1785;SDS011;890;48.158;11.540;2023-04-21T01:55:25;28.30;;;17.60;;
1785;SDS011;890;48.158;11.540;2023-04-21T01:57:50;25.70;;;17.67;;
1785;SDS011;890;48.158;11.540;2023-04-21T02:00:16;25.90;;;16.60;;
1785;SDS011;890;48.158;11.540;2023-04-21T02:02:42;25.20;;;17.07;;
1785;SDS011;890;48.158;11.540;2023-04-21T02:05:07;24.00;;;17.07;;
1785;SDS011;890;48.158;11.540;2023-04-21T02:07:33;26.13;;;17.53;;
1785;SDS011;890;48.158;11.540;2023-04-21T02:09:59;27.27;;;18.60;;
1785;SDS011;890;48.158;11.540;2023-04-21T02:12:24;22.73;;;16.23;;
1785;SDS011;890;48.158;11.540;2023-04-21T02:14:50;23.07;;;16.50;;
1785;SDS011;890;48.158;11.540;2023-04-21T02:17:15;26.87;;;17.13;;
1785;SDS011;890;48.158;11.540;2023-04-21T02:19:41;24.93;;;16.87;;
1785;SDS011;890;48.158;11.540;2023-04-21T02:22:07;24.43;;;17.20;;
1785;SDS011;890;48.158;11.540;2023-04-21T02:24:34;23.37;;;15.30;;
1785;SDS011;890;48.158;11.540;2023-04-21T02:27:00;26.40;;;18.30;;
1785;SDS011;890;48.158;11.540;2023-04-21T02:29:26;26.10;;;18.00;;
1785;SDS011;890;48.158;11.540;2023-04-21T02:31:52;25.53;;;16.00;;
1785;SDS011;890;48.158;11.540;2023-04-21T02:34:17;29.23;;;18.00;;
1785;SDS011;890;48.158;11.540;2023-04-21T02:36:44;23.83;;;17.20;;
1785;SDS011;890;48.158;11.540;2023-04-21T02:39:10;26.80;;;17.63;;
1785;SDS011;890;48.158;11.540;2023-04-21T02:41:35;27.03;;;17.40;;
1785;SDS011;890;48.158;11.540;2023-04-21T02:44:01;26.20;;;19.00;;
1785;SDS011;890;48.158;11.540;2023-04-21T02:46:27;25.80;;;18.20;;
1785;SDS011;890;48.158;11.540;2023-04-21T02:48:52;27.53;;;18.93;;
1785;SDS011;890;48.158;11.540;2023-04-21T02:51:18;29.80;;;19.33;;
1785;SDS011;890;48.158;11.540;2023-04-21T02:53:43;26.07;;;18.53;;
1785;SDS011;890;48.158;11.540;2023-04-21T02:56:09;23.83;;;17.90;;
1785;SDS011;890;48.158;11.540;2023-04-21T02:58:35;25.07;;;18.00;;
1785;SDS011;890;48.158;11.540;2023-04-21T03:01:01;29.83;;;19.17;;
1785;SDS011;890;48.158;11.540;2023-04-21T03:03:28;28.70;;;18.63;;
1785;SDS011;890;48.158;11.540;2023-04-21T03:05:57;30.27;;;18.63;;
1785;SDS011;890;48.158;11.540;2023-04-21T03:08:26;26.77;;;18.43;;
1785;SDS011;890;48.158;11.540;2023-04-21T03:10:52;28.93;;;19.73;;
1785;SDS011;890;48.158;11.540;2023-04-21T03:13:18;25.67;;;18.90;;
1785;SDS011;890;48.158;11.540;2023-04-21T03:15:44;29.43;;;20.17;;
1785;SDS011;890;48.158;11.540;2023-04-21T03:18:10;32.23;;;19.77;;
1785;SDS011;890;48.158;11.540;2023-04-21T03:20:36;26.47;;;19.20;;
1785;SDS011;890;48.158;11.540;2023-04-21T03:23:01;28.40;;;18.33;;
1785;SDS011;890;48.158;11.540;2023-04-21T03:25:27;26.77;;;18.30;;
1785;SDS011;890;48.158;11.540;2023-04-21T03:27:53;27.47;;;18.63;;
1785;SDS011;890;48.158;11.540;2023-04-21T03:30:19;28.90;;;19.50;;
1785;SDS011;890;48.158;11.540;2023-04-21T03:32:45;25.10;;;18.00;;
1785;SDS011;890;48.158;11.540;2023-04-21T03:35:11;23.93;;;16.60;;
1785;SDS011;890;48.158;11.540;2023-04-21T03:37:36;25.17;;;17.10;;
1785;SDS011;890;48.158;11.540;2023-04-21T03:40:02;27.10;;;18.47;;
1785;SDS011;890;48.158;11.540;2023-04-21T03:42:32;27.10;;;18.17;;
1785;SDS011;890;48.158;11.540;2023-04-21T03:45:01;22.27;;;17.50;;
1785;SDS011;890;48.158;11.540;2023-04-21T03:47:28;29.00;;;18.77;;
1785;SDS011;890;48.158;11.540;2023-04-21T03:49:54;27.87;;;18.30;;
1785;SDS011;890;48.158;11.540;2023-04-21T03:52:19;25.57;;;18.07;;
1785;SDS011;890;48.158;11.540;2023-04-21T03:54:45;27.80;;;18.53;;
1785;SDS011;890;48.158;11.540;2023-04-21T03:57:11;25.13;;;17.13;;
1785;SDS011;890;48.158;11.540;2023-04-21T03:59:37;25.80;;;18.10;;
1785;SDS011;890;48.158;11.540;2023-04-21T04:02:03;26.93;;;17.57;;
1785;SDS011;890;48.158;11.540;2023-04-21T04:04:28;26.00;;;18.03;;
1785;SDS011;890;48.158;11.540;2023-04-21T04:06:54;25.90;;;18.00;;
1785;SDS011;890;48.158;11.540;2023-04-21T04:09:20;27.23;;;18.40;;
1785;SDS011;890;48.158;11.540;2023-04-21T04:11:45;26.90;;;18.93;;
1785;SDS011;890;48.158;11.540;2023-04-21T04:14:11;33.30;;;20.43;;
1785;SDS011;890;48.158;11.540;2023-04-21T04:16:36;28.57;;;19.47;;
1785;SDS011;890;48.158;11.540;2023-04-21T04:19:02;29.10;;;18.40;;
1785;SDS011;890;48.158;11.540;2023-04-21T04:21:28;24.57;;;18.90;;
1785;SDS011;890;48.158;11.540;2023-04-21T04:23:54;27.47;;;18.73;;
1785;SDS011;890;48.158;11.540;2023-04-21T04:26:19;28.43;;;18.87;;
1785;SDS011;890;48.158;11.540;2023-04-21T04:28:48;26.13;;;18.70;;
1785;SDS011;890;48.158;11.540;2023-04-21T04:31:14;26.77;;;18.87;;
1785;SDS011;890;48.158;11.540;2023-04-21T04:33:41;26.33;;;17.97;;
1785;SDS011;890;48.158;11.540;2023-04-21T04:36:06;28.00;;;19.40;;
1785;SDS011;890;48.158;11.540;2023-04-21T04:38:33;30.67;;;19.83;;
1785;SDS011;890;48.158;11.540;2023-04-21T04:41:02;27.33;;;19.90;;
1785;SDS011;890;48.158;11.540;2023-04-21T04:43:29;32.27;;;19.10;;
1785;SDS011;890;48.158;11.540;2023-04-21T04:45:57;27.03;;;18.47;;
1785;SDS011;890;48.158;11.540;2023-04-21T04:48:23;30.00;;;20.20;;
1785;SDS011;890;48.158;11.540;2023-04-21T04:50:49;26.60;;;19.20;;
1785;SDS011;890;48.158;11.540;2023-04-21T04:53:15;25.93;;;17.80;;
1785;SDS011;890;48.158;11.540;2023-04-21T04:55:41;28.17;;;18.73;;
1785;SDS011;890;48.158;11.540;2023-04-21T04:58:06;30.43;;;19.63;;
1785;SDS011;890;48.158;11.540;2023-04-21T05:00:32;24.37;;;17.60;;
1785;SDS011;890;48.158;11.540;2023-04-21T05:02:58;25.97;;;18.70;;
1785;SDS011;890;48.158;11.540;2023-04-21T05:05:23;25.60;;;18.80;;
1785;SDS011;890;48.158;11.540;2023-04-21T05:07:49;26.70;;;18.23;;
1785;SDS011;890;48.158;11.540;2023-04-21T05:10:15;22.80;;;16.70;;
1785;SDS011;890;48.158;11.540;2023-04-21T05:12:40;26.87;;;18.23;;
1785;SDS011;890;48.158;11.540;2023-04-21T05:15:06;24.60;;;16.77;;
1785;SDS011;890;48.158;11.540;2023-04-21T05:17:32;28.20;;;19.50;;
1785;SDS011;890;48.158;11.540;2023-04-21T05:19:58;26.93;;;18.47;;
1785;SDS011;890;48.158;11.540;2023-04-21T05:22:24;26.13;;;19.60;;
1785;SDS011;890;48.158;11.540;2023-04-21T05:24:50;26.80;;;17.90;;
1785;SDS011;890;48.158;11.540;2023-04-21T05:27:17;28.57;;;19.03;;
1785;SDS011;890;48.158;11.540;2023-04-21T05:29:42;27.57;;;19.17;;
1785;SDS011;890;48.158;11.540;2023-04-21T05:32:08;26.10;;;18.13;;
1785;SDS011;890;48.158;11.540;2023-04-21T05:34:36;28.27;;;19.57;;
1785;SDS011;890;48.158;11.540;2023-04-21T05:37:02;23.50;;;16.87;;
1785;SDS011;890;48.158;11.540;2023-04-21T05:39:28;24.87;;;17.63;;
1785;SDS011;890;48.158;11.540;2023-04-21T05:41:53;27.10;;;19.40;;
1785;SDS011;890;48.158;11.540;2023-04-21T05:44:19;24.17;;;17.80;;
1785;SDS011;890;48.158;11.540;2023-04-21T05:46:45;24.30;;;16.93;;
1785;SDS011;890;48.158;11.540;2023-04-21T05:49:10;22.20;;;15.67;;
1785;SDS011;890;48.158;11.540;2023-04-21T05:51:36;20.80;;;16.17;;
1785;SDS011;890;48.158;11.540;2023-04-21T05:54:02;22.00;;;16.73;;
1785;SDS011;890;48.158;11.540;2023-04-21T05:56:27;19.93;;;15.90;;
1785;SDS011;890;48.158;11.540;2023-04-21T05:58:53;20.23;;;15.00;;
1785;SDS011;890;48.158;11.540;2023-04-21T06:01:18;21.47;;;15.90;;
1785;SDS011;890;48.158;11.540;2023-04-21T06:03:44;19.80;;;15.73;;
1785;SDS011;890;48.158;11.540;2023-04-21T06:06:12;18.73;;;14.77;;
1785;SDS011;890;48.158;11.540;2023-04-21T06:08:39;20.43;;;14.90;;
1785;SDS011;890;48.158;11.540;2023-04-21T06:11:04;16.97;;;13.30;;
1785;SDS011;890;48.158;11.540;2023-04-21T06:13:30;18.27;;;13.73;;
1785;SDS011;890;48.158;11.540;2023-04-21T06:15:55;18.83;;;14.40;;
1785;SDS011;890;48.158;11.540;2023-04-21T06:18:21;17.80;;;12.93;;
1785;SDS011;890;48.158;11.540;2023-04-21T06:20:51;18.20;;;14.00;;
1785;SDS011;890;48.158;11.540;2023-04-21T06:23:17;17.53;;;13.73;;
1785;SDS011;890;48.158;11.540;2023-04-21T06:25:43;17.30;;;14.10;;
1785;SDS011;890;48.158;11.540;2023-04-21T06:28:09;14.73;;;12.07;;
1785;SDS011;890;48.158;11.540;2023-04-21T06:30:34;14.80;;;10.90;;
1785;SDS011;890;48.158;11.540;2023-04-21T06:33:00;14.80;;;11.47;;
1785;SDS011;890;48.158;11.540;2023-04-21T06:35:26;15.13;;;11.57;;
1785;SDS011;890;48.158;11.540;2023-04-21T06:37:51;15.23;;;11.40;;
1785;SDS011;890;48.158;11.540;2023-04-21T06:40:17;16.40;;;12.50;;
1785;SDS011;890;48.158;11.540;2023-04-21T06:42:43;16.20;;;12.43;;
1785;SDS011;890;48.158;11.540;2023-04-21T06:45:08;16.80;;;12.53;;
1785;SDS011;890;48.158;11.540;2023-04-21T06:47:34;18.60;;;11.90;;
1785;SDS011;890;48.158;11.540;2023-04-21T06:50:00;15.00;;;11.80;;
1785;SDS011;890;48.158;11.540;2023-04-21T06:52:26;16.97;;;12.40;;
1785;SDS011;890;48.158;11.540;2023-04-21T06:54:51;16.00;;;12.40;;
1785;SDS011;890;48.158;11.540;2023-04-21T06:57:17;14.70;;;11.60;;
1785;SDS011;890;48.158;11.540;2023-04-21T06:59:42;18.10;;;13.00;;
1785;SDS011;890;48.158;11.540;2023-04-21T07:02:08;14.03;;;11.47;;
1785;SDS011;890;48.158;11.540;2023-04-21T07:04:34;14.63;;;12.00;;
1785;SDS011;890;48.158;11.540;2023-04-21T07:06:59;15.20;;;11.60;;
1785;SDS011;890;48.158;11.540;2023-04-21T07:09:25;17.33;;;12.17;;
1785;SDS011;890;48.158;11.540;2023-04-21T07:11:52;16.13;;;12.60;;
1785;SDS011;890;48.158;11.540;2023-04-21T07:14:18;16.50;;;11.40;;
1785;SDS011;890;48.158;11.540;2023-04-21T07:16:44;16.53;;;12.70;;
1785;SDS011;890;48.158;11.540;2023-04-21T07:19:10;18.20;;;12.00;;
1785;SDS011;890;48.158;11.540;2023-04-21T07:21:35;14.37;;;11.03;;
1785;SDS011;890;48.158;11.540;2023-04-21T07:24:01;14.40;;;10.80;;
1785;SDS011;890;48.158;11.540;2023-04-21T07:26:27;15.60;;;11.13;;
1785;SDS011;890;48.158;11.540;2023-04-21T07:28:53;13.87;;;10.43;;
1785;SDS011;890;48.158;11.540;2023-04-21T07:31:22;12.23;;;10.43;;
1785;SDS011;890;48.158;11.540;2023-04-21T07:33:48;14.10;;;11.40;;
1785;SDS011;890;48.158;11.540;2023-04-21T07:36:13;14.10;;;10.47;;
1785;SDS011;890;48.158;11.540;2023-04-21T07:38:39;12.40;;;10.03;;
1785;SDS011;890;48.158;11.540;2023-04-21T07:41:09;13.53;;;10.80;;
1785;SDS011;890;48.158;11.540;2023-04-21T07:43:38;12.60;;;9.73;;
1785;SDS011;890;48.158;11.540;2023-04-21T07:46:04;11.73;;;9.00;;
1785;SDS011;890;48.158;11.540;2023-04-21T07:48:31;12.83;;;8.87;;
1785;SDS011;890;48.158;11.540;2023-04-21T07:50:56;13.53;;;9.50;;
1785;SDS011;890;48.158;11.540;2023-04-21T07:53:24;13.37;;;9.33;;
1785;SDS011;890;48.158;11.540;2023-04-21T07:55:50;11.97;;;9.33;;
1785;SDS011;890;48.158;11.540;2023-04-21T07:58:15;13.07;;;10.00;;
1785;SDS011;890;48.158;11.540;2023-04-21T08:00:41;13.30;;;9.80;;
1785;SDS011;890;48.158;11.540;2023-04-21T08:03:07;13.40;;;10.10;;
1785;SDS011;890;48.158;11.540;2023-04-21T08:05:32;12.50;;;9.10;;
1785;SDS011;890;48.158;11.540;2023-04-21T08:07:58;14.43;;;10.33;;
1785;SDS011;890;48.158;11.540;2023-04-21T08:10:24;12.13;;;9.23;;
1785;SDS011;890;48.158;11.540;2023-04-21T08:12:49;12.90;;;10.03;;
1785;SDS011;890;48.158;11.540;2023-04-21T08:15:15;15.10;;;9.33;;
1785;SDS011;890;48.158;11.540;2023-04-21T08:17:41;11.87;;;9.43;;
1785;SDS011;890;48.158;11.540;2023-04-21T08:20:07;11.33;;;9.47;;
1785;SDS011;890;48.158;11.540;2023-04-21T08:22:33;13.30;;;9.90;;
1785;SDS011;890;48.158;11.540;2023-04-21T08:25:00;12.80;;;9.80;;
1785;SDS011;890;48.158;11.540;2023-04-21T08:27:27;11.50;;;9.00;;
1785;SDS011;890;48.158;11.540;2023-04-21T08:29:52;10.23;;;8.90;;
1785;SDS011;890;48.158;11.540;2023-04-21T08:32:18;11.80;;;9.20;;
1785;SDS011;890;48.158;11.540;2023-04-21T08:34:48;13.90;;;9.83;;
1785;SDS011;890;48.158;11.540;2023-04-21T08:37:15;13.90;;;8.60;;
1785;SDS011;890;48.158;11.540;2023-04-21T08:39:42;10.20;;;8.67;;
1785;SDS011;890;48.158;11.540;2023-04-21T08:42:08;10.97;;;8.67;;
1785;SDS011;890;48.158;11.540;2023-04-21T08:44:33;12.13;;;7.77;;
1785;SDS011;890;48.158;11.540;2023-04-21T08:46:59;11.47;;;9.27;;
1785;SDS011;890;48.158;11.540;2023-04-21T08:49:28;14.13;;;8.63;;
1785;SDS011;890;48.158;11.540;2023-04-21T08:51:55;14.27;;;9.10;;
1785;SDS011;890;48.158;11.540;2023-04-21T08:54:21;10.37;;;8.10;;
1785;SDS011;890;48.158;11.540;2023-04-21T08:56:47;12.50;;;7.80;;
1785;SDS011;890;48.158;11.540;2023-04-21T08:59:13;11.77;;;8.27;;
1785;SDS011;890;48.158;11.540;2023-04-21T09:04:52;9.60;;;8.20;;
1785;SDS011;890;48.158;11.540;2023-04-21T09:07:35;8.80;;;7.83;;
1785;SDS011;890;48.158;11.540;2023-04-21T09:10:03;8.30;;;7.27;;
1785;SDS011;890;48.158;11.540;2023-04-21T09:12:29;12.63;;;8.10;;
1785;SDS011;890;48.158;11.540;2023-04-21T09:14:55;11.40;;;9.23;;
1785;SDS011;890;48.158;11.540;2023-04-21T09:17:29;12.30;;;9.50;;
1785;SDS011;890;48.158;11.540;2023-04-21T09:19:59;10.93;;;8.30;;
1785;SDS011;890;48.158;11.540;2023-04-21T09:22:42;9.80;;;8.80;;
1785;SDS011;890;48.158;11.540;2023-04-21T09:25:08;11.20;;;9.30;;
1785;SDS011;890;48.158;11.540;2023-04-21T09:27:35;10.63;;;9.20;;
1785;SDS011;890;48.158;11.540;2023-04-21T09:30:02;9.77;;;7.60;;
1785;SDS011;890;48.158;11.540;2023-04-21T09:32:56;12.17;;;8.93;;
1785;SDS011;890;48.158;11.540;2023-04-21T09:35:26;11.07;;;7.70;;
1785;SDS011;890;48.158;11.540;2023-04-21T09:37:52;10.27;;;7.83;;
1785;SDS011;890;48.158;11.540;2023-04-21T09:40:18;9.27;;;7.90;;
1785;SDS011;890;48.158;11.540;2023-04-21T09:42:44;9.50;;;6.70;;
1785;SDS011;890;48.158;11.540;2023-04-21T09:45:10;10.97;;;8.87;;
1785;SDS011;890;48.158;11.540;2023-04-21T09:47:38;6.37;;;5.03;;
1785;SDS011;890;48.158;11.540;2023-04-21T09:50:06;4.63;;;4.13;;
1785;SDS011;890;48.158;11.540;2023-04-21T09:52:33;5.83;;;4.23;;
1785;SDS011;890;48.158;11.540;2023-04-21T09:55:02;6.40;;;5.60;;
1785;SDS011;890;48.158;11.540;2023-04-21T09:57:30;8.07;;;5.67;;
1785;SDS011;890;48.158;11.540;2023-04-21T10:00:00;7.60;;;5.33;;
1785;SDS011;890;48.158;11.540;2023-04-21T10:02:44;7.97;;;5.70;;
1785;SDS011;890;48.158;11.540;2023-04-21T10:05:13;7.63;;;5.40;;
1785;SDS011;890;48.158;11.540;2023-04-21T10:07:39;7.23;;;5.20;;
1785;SDS011;890;48.158;11.540;2023-04-21T10:10:06;7.83;;;5.07;;
1785;SDS011;890;48.158;11.540;2023-04-21T10:12:36;7.93;;;6.27;;
1785;SDS011;890;48.158;11.540;2023-04-21T10:15:03;8.47;;;5.60;;
1785;SDS011;890;48.158;11.540;2023-04-21T10:17:31;6.40;;;5.13;;
1785;SDS011;890;48.158;11.540;2023-04-21T10:20:00;8.67;;;5.13;;
1785;SDS011;890;48.158;11.540;2023-04-21T10:22:31;5.10;;;4.00;;
1785;SDS011;890;48.158;11.540;2023-04-21T10:24:59;6.43;;;4.77;;
1785;SDS011;890;48.158;11.540;2023-04-21T10:27:30;6.77;;;5.67;;
1785;SDS011;890;48.158;11.540;2023-04-21T10:29:57;7.87;;;5.13;;
1785;SDS011;890;48.158;11.540;2023-04-21T10:32:30;7.80;;;6.63;;
1785;SDS011;890;48.158;11.540;2023-04-21T10:35:04;9.83;;;6.73;;
1785;SDS011;890;48.158;11.540;2023-04-21T10:37:38;9.03;;;6.83;;
1785;SDS011;890;48.158;11.540;2023-04-21T10:40:05;8.70;;;7.30;;
1785;SDS011;890;48.158;11.540;2023-04-21T10:42:35;8.30;;;6.97;;
1785;SDS011;890;48.158;11.540;2023-04-21T10:45:04;9.73;;;7.80;;
1785;SDS011;890;48.158;11.540;2023-04-21T10:47:47;10.57;;;8.10;;
1785;SDS011;890;48.158;11.540;2023-04-21T10:50:33;12.07;;;8.23;;
1785;SDS011;890;48.158;11.540;2023-04-21T10:53:08;9.63;;;8.07;;
1785;SDS011;890;48.158;11.540;2023-04-21T10:55:37;10.30;;;7.43;;
1785;SDS011;890;48.158;11.540;2023-04-21T10:58:04;8.73;;;7.83;;
1785;SDS011;890;48.158;11.540;2023-04-21T11:00:33;8.70;;;6.87;;
1785;SDS011;890;48.158;11.540;2023-04-21T11:03:00;9.27;;;8.20;;
1785;SDS011;890;48.158;11.540;2023-04-21T11:05:34;8.80;;;7.47;;
1785;SDS011;890;48.158;11.540;2023-04-21T11:08:06;8.97;;;7.03;;
1785;SDS011;890;48.158;11.540;2023-04-21T11:10:40;8.47;;;6.90;;
1785;SDS011;890;48.158;11.540;2023-04-21T11:13:21;9.47;;;7.77;;
1785;SDS011;890;48.158;11.540;2023-04-21T11:15:55;10.80;;;7.97;;
1785;SDS011;890;48.158;11.540;2023-04-21T11:18:40;12.10;;;8.07;;
1785;SDS011;890;48.158;11.540;2023-04-21T11:21:11;8.20;;;7.00;;
1785;SDS011;890;48.158;11.540;2023-04-21T11:23:46;10.70;;;7.80;;
1785;SDS011;890;48.158;11.540;2023-04-21T11:26:17;9.77;;;7.40;;
1785;SDS011;890;48.158;11.540;2023-04-21T11:28:48;10.50;;;8.00;;
1785;SDS011;890;48.158;11.540;2023-04-21T11:31:14;10.17;;;7.90;;
1785;SDS011;890;48.158;11.540;2023-04-21T11:33:40;9.67;;;8.20;;
1785;SDS011;890;48.158;11.540;2023-04-21T11:36:05;8.57;;;7.73;;
1785;SDS011;890;48.158;11.540;2023-04-21T11:38:38;8.70;;;7.67;;
1785;SDS011;890;48.158;11.540;2023-04-21T11:41:05;11.10;;;8.87;;
1785;SDS011;890;48.158;11.540;2023-04-21T11:43:31;9.93;;;7.30;;
1785;SDS011;890;48.158;11.540;2023-04-21T11:46:15;7.50;;;6.53;;
1785;SDS011;890;48.158;11.540;2023-04-21T11:48:42;7.60;;;6.40;;
1785;SDS011;890;48.158;11.540;2023-04-21T11:51:17;10.53;;;7.80;;
1785;SDS011;890;48.158;11.540;2023-04-21T11:53:45;8.33;;;6.60;;
1785;SDS011;890;48.158;11.540;2023-04-21T11:56:15;8.90;;;7.33;;
1785;SDS011;890;48.158;11.540;2023-04-21T11:58:42;11.63;;;7.30;;
1785;SDS011;890;48.158;11.540;2023-04-21T12:01:09;8.53;;;6.63;;
1785;SDS011;890;48.158;11.540;2023-04-21T12:03:35;6.60;;;5.90;;
1785;SDS011;890;48.158;11.540;2023-04-21T12:06:01;6.93;;;6.23;;
1785;SDS011;890;48.158;11.540;2023-04-21T12:08:32;7.93;;;7.13;;
1785;SDS011;890;48.158;11.540;2023-04-21T12:10:58;10.13;;;8.57;;
1785;SDS011;890;48.158;11.540;2023-04-21T12:13:26;9.80;;;8.17;;
1785;SDS011;890;48.158;11.540;2023-04-21T12:15:52;9.17;;;8.07;;
1785;SDS011;890;48.158;11.540;2023-04-21T12:18:18;8.93;;;7.30;;
1785;SDS011;890;48.158;11.540;2023-04-21T12:20:50;11.57;;;10.47;;
1785;SDS011;890;48.158;11.540;2023-04-21T12:23:16;10.20;;;9.10;;
1785;SDS011;890;48.158;11.540;2023-04-21T12:25:43;8.43;;;6.67;;
1785;SDS011;890;48.158;11.540;2023-04-21T12:28:10;10.20;;;7.97;;
1785;SDS011;890;48.158;11.540;2023-04-21T12:30:37;12.63;;;8.00;;
1785;SDS011;890;48.158;11.540;2023-04-21T12:33:03;10.10;;;9.10;;
1785;SDS011;890;48.158;11.540;2023-04-21T12:35:29;11.33;;;9.37;;
1785;SDS011;890;48.158;11.540;2023-04-21T12:37:57;9.10;;;8.20;;
1785;SDS011;890;48.158;11.540;2023-04-21T12:40:22;9.30;;;8.40;;
1785;SDS011;890;48.158;11.540;2023-04-21T12:42:48;8.40;;;7.60;;
1785;SDS011;890;48.158;11.540;2023-04-21T12:45:14;7.10;;;6.40;;
1785;SDS011;890;48.158;11.540;2023-04-21T12:47:39;7.50;;;5.57;;
1785;SDS011;890;48.158;11.540;2023-04-21T12:50:06;5.67;;;5.17;;
1785;SDS011;890;48.158;11.540;2023-04-21T12:52:32;5.50;;;4.90;;
1785;SDS011;890;48.158;11.540;2023-04-21T12:54:58;5.80;;;5.03;;
1785;SDS011;890;48.158;11.540;2023-04-21T12:57:23;5.40;;;4.77;;
1785;SDS011;890;48.158;11.540;2023-04-21T12:59:49;4.70;;;4.20;;
1785;SDS011;890;48.158;11.540;2023-04-21T13:02:15;4.27;;;3.87;;
1785;SDS011;890;48.158;11.540;2023-04-21T13:04:40;4.03;;;3.63;;
1785;SDS011;890;48.158;11.540;2023-04-21T13:07:06;3.60;;;3.17;;
1785;SDS011;890;48.158;11.540;2023-04-21T13:09:32;3.77;;;3.43;;
1785;SDS011;890;48.158;11.540;2023-04-21T13:11:58;4.00;;;3.20;;
1785;SDS011;890;48.158;11.540;2023-04-21T13:14:28;3.37;;;3.07;;
1785;SDS011;890;48.158;11.540;2023-04-21T13:16:57;3.47;;;3.17;;
1785;SDS011;890;48.158;11.540;2023-04-21T13:19:23;3.20;;;2.90;;
1785;SDS011;890;48.158;11.540;2023-04-21T13:21:49;3.50;;;3.03;;
1785;SDS011;890;48.158;11.540;2023-04-21T13:24:16;3.50;;;3.20;;
1785;SDS011;890;48.158;11.540;2023-04-21T13:26:41;4.50;;;3.50;;
1785;SDS011;890;48.158;11.540;2023-04-21T13:29:07;3.80;;;3.50;;
1785;SDS011;890;48.158;11.540;2023-04-21T13:31:33;3.87;;;3.57;;
1785;SDS011;890;48.158;11.540;2023-04-21T13:33:59;3.50;;;3.20;;
1785;SDS011;890;48.158;11.540;2023-04-21T13:36:25;5.00;;;3.43;;
1785;SDS011;890;48.158;11.540;2023-04-21T13:38:50;3.40;;;3.10;;
1785;SDS011;890;48.158;11.540;2023-04-21T13:41:17;3.60;;;3.30;;
1785;SDS011;890;48.158;11.540;2023-04-21T13:43:43;3.40;;;3.10;;
1785;SDS011;890;48.158;11.540;2023-04-21T13:46:09;3.37;;;3.07;;
1785;SDS011;890;48.158;11.540;2023-04-21T13:48:35;3.80;;;3.47;;
1785;SDS011;890;48.158;11.540;2023-04-21T13:51:01;3.80;;;3.40;;
1785;SDS011;890;48.158;11.540;2023-04-21T13:53:26;3.47;;;3.13;;
1785;SDS011;890;48.158;11.540;2023-04-21T13:55:52;3.30;;;2.90;;
1785;SDS011;890;48.158;11.540;2023-04-21T13:58:20;3.47;;;3.17;;
1785;SDS011;890;48.158;11.540;2023-04-21T14:00:46;4.47;;;4.07;;
1785;SDS011;890;48.158;11.540;2023-04-21T14:03:12;4.80;;;4.40;;
1785;SDS011;890;48.158;11.540;2023-04-21T14:05:38;4.47;;;4.07;;
1785;SDS011;890;48.158;11.540;2023-04-21T14:08:03;4.17;;;3.77;;
1785;SDS011;890;48.158;11.540;2023-04-21T14:10:29;4.20;;;3.80;;
1785;SDS011;890;48.158;11.540;2023-04-21T14:12:55;4.70;;;3.40;;
1785;SDS011;890;48.158;11.540;2023-04-21T14:15:20;3.63;;;3.30;;
1785;SDS011;890;48.158;11.540;2023-04-21T14:17:46;3.70;;;3.23;;
1785;SDS011;890;48.158;11.540;2023-04-21T14:20:12;4.40;;;3.83;;
1785;SDS011;890;48.158;11.540;2023-04-21T14:22:38;4.30;;;3.90;;
1785;SDS011;890;48.158;11.540;2023-04-21T14:25:04;4.13;;;3.70;;
1785;SDS011;890;48.158;11.540;2023-04-21T14:27:31;3.30;;;3.00;;
1785;SDS011;890;48.158;11.540;2023-04-21T14:29:56;3.50;;;3.20;;
1785;SDS011;890;48.158;11.540;2023-04-21T14:32:24;3.40;;;3.10;;
1785;SDS011;890;48.158;11.540;2023-04-21T14:34:50;4.53;;;3.37;;
1785;SDS011;890;48.158;11.540;2023-04-21T14:37:17;3.63;;;3.30;;
1785;SDS011;890;48.158;11.540;2023-04-21T14:39:44;3.50;;;3.20;;
1785;SDS011;890;48.158;11.540;2023-04-21T14:42:09;3.63;;;3.10;;
1785;SDS011;890;48.158;11.540;2023-04-21T14:44:35;3.43;;;3.13;;
1785;SDS011;890;48.158;11.540;2023-04-21T14:47:01;4.50;;;3.50;;
1785;SDS011;890;48.158;11.540;2023-04-21T14:49:26;3.20;;;2.90;;
1785;SDS011;890;48.158;11.540;2023-04-21T14:51:52;3.50;;;3.20;;
1785;SDS011;890;48.158;11.540;2023-04-21T14:54:18;3.43;;;2.90;;
1785;SDS011;890;48.158;11.540;2023-04-21T14:56:43;2.97;;;2.77;;
1785;SDS011;890;48.158;11.540;2023-04-21T14:59:09;2.90;;;2.70;;